createdAt,value
2018-09-11T00:01:58.522Z,7.60
2018-09-11T00:04:02.423Z,7.33
2018-09-11T00:06:06.424Z,12.70
2018-09-11T00:08:10.440Z,8.60
2018-09-11T00:10:16.082Z,9.23
2018-09-11T00:12:20.111Z,7.67
2018-09-11T00:14:24.458Z,8.50
2018-09-11T00:16:28.748Z,7.17
2018-09-11T00:18:32.750Z,9.37
2018-09-11T00:20:36.666Z,9.83
2018-09-11T00:22:40.707Z,6.33
2018-09-11T00:24:44.665Z,10.40
2018-09-11T00:26:48.653Z,7.13
2018-09-11T00:28:53.184Z,6.40
2018-09-11T00:30:57.808Z,5.87
2018-09-11T00:33:02.709Z,7.97
2018-09-11T00:35:07.007Z,7.37
2018-09-11T00:37:11.077Z,10.10
2018-09-11T00:39:15.190Z,9.83
2018-09-11T00:41:19.598Z,8.57
2018-09-11T00:43:23.578Z,11.00
2018-09-11T00:45:28.336Z,9.73
2018-09-11T00:47:33.799Z,9.97
2018-09-11T00:49:37.891Z,7.57
2018-09-11T00:51:42.657Z,11.37
2018-09-11T00:53:47.006Z,9.83
2018-09-11T00:55:51.036Z,11.93
2018-09-11T00:57:56.007Z,8.67
2018-09-11T01:00:00.516Z,7.70
2018-09-11T01:02:05.488Z,7.83
2018-09-11T01:04:09.498Z,6.73
2018-09-11T01:06:14.621Z,7.80
2018-09-11T01:08:18.640Z,8.33
2018-09-11T01:10:22.609Z,7.70
2018-09-11T01:12:26.911Z,7.70
2018-09-11T01:14:30.931Z,10.37
2018-09-11T01:16:34.899Z,5.63
2018-09-11T01:18:40.167Z,8.17
2018-09-11T01:20:45.433Z,9.67
2018-09-11T01:22:51.184Z,9.87
2018-09-11T01:24:56.873Z,7.53
2018-09-11T01:27:02.291Z,7.90
2018-09-11T01:29:07.702Z,7.73
2018-09-11T01:31:15.898Z,9.27
2018-09-11T01:33:20.816Z,8.80
2018-09-11T01:35:25.929Z,7.73
2018-09-11T01:37:30.389Z,8.37
2018-09-11T01:39:35.271Z,9.27
2018-09-11T01:41:40.807Z,11.07
2018-09-11T01:43:44.842Z,7.90
2018-09-11T01:45:49.624Z,9.53
2018-09-11T01:47:54.221Z,6.97
2018-09-11T01:50:01.121Z,9.43
2018-09-11T01:52:05.167Z,13.57
2018-09-11T01:54:09.799Z,10.07
2018-09-11T01:56:14.811Z,13.17
2018-09-11T01:58:19.299Z,9.33
2018-09-11T02:00:25.175Z,9.47
2018-09-11T02:02:29.548Z,10.30
2018-09-11T02:04:33.511Z,8.23
2018-09-11T02:06:37.518Z,9.23
2018-09-11T02:08:41.575Z,7.33
2018-09-11T02:10:45.839Z,9.23
2018-09-11T02:12:49.939Z,9.17
2018-09-11T02:14:54.219Z,12.77
2018-09-11T02:16:58.147Z,11.40
2018-09-11T02:19:02.327Z,9.97
2018-09-11T02:21:06.876Z,8.63
2018-09-11T02:23:10.830Z,8.10
2018-09-11T02:25:16.110Z,7.30
2018-09-11T02:27:20.424Z,7.57
2018-09-11T02:29:24.403Z,11.70
2018-09-11T02:31:28.427Z,8.03
2018-09-11T02:33:32.509Z,8.33
2018-09-11T02:35:39.892Z,10.23
2018-09-11T02:37:43.852Z,7.47
2018-09-11T02:39:48.108Z,11.33
2018-09-11T02:41:52.039Z,7.07
2018-09-11T02:43:56.064Z,9.20
2018-09-11T02:46:00.491Z,9.47
2018-09-11T02:48:04.770Z,10.43
2018-09-11T02:50:09.031Z,11.17
2018-09-11T02:52:14.592Z,8.63
2018-09-11T02:54:18.555Z,12.07
2018-09-11T02:56:23.356Z,9.23
2018-09-11T02:58:27.818Z,8.10
2018-09-11T03:00:31.820Z,9.23
2018-09-11T03:02:35.886Z,11.07
2018-09-11T03:04:41.147Z,9.30
2018-09-11T03:06:45.188Z,10.13
2018-09-11T03:08:49.141Z,13.23
2018-09-11T03:10:53.532Z,12.73
2018-09-11T03:12:58.928Z,11.80
2018-09-11T03:15:03.052Z,11.73
2018-09-11T03:17:08.420Z,9.40
2018-09-11T03:19:12.379Z,10.30
2018-09-11T03:21:16.296Z,11.57
2018-09-11T03:23:21.608Z,10.53
2018-09-11T03:25:25.547Z,12.40
2018-09-11T03:27:30.848Z,7.83
2018-09-11T03:29:34.783Z,11.43
2018-09-11T03:31:38.743Z,15.23
2018-09-11T03:33:42.788Z,9.60
2018-09-11T03:35:47.023Z,15.07
2018-09-11T03:37:51.040Z,9.43
2018-09-11T03:39:55.947Z,10.37
2018-09-11T03:42:00.268Z,12.97
2018-09-11T03:44:05.067Z,11.63
2018-09-11T03:46:09.002Z,10.60
2018-09-11T03:48:13.479Z,11.63
2018-09-11T03:50:18.123Z,10.33
2018-09-11T03:52:22.214Z,10.70
2018-09-11T03:54:26.377Z,11.57
2018-09-11T03:56:30.458Z,9.33
2018-09-11T03:58:34.546Z,15.50
2018-09-11T04:00:39.611Z,9.87
2018-09-11T04:02:43.576Z,11.93
2018-09-11T04:04:47.749Z,14.23
2018-09-11T04:06:52.734Z,12.47
2018-09-11T04:08:56.668Z,11.97
2018-09-11T04:11:00.648Z,13.17
2018-09-11T04:13:04.966Z,13.17
2018-09-11T04:15:08.900Z,9.57
2018-09-11T04:17:12.839Z,11.23
2018-09-11T04:19:16.803Z,9.37
2018-09-11T04:21:20.751Z,8.97
2018-09-11T04:23:24.786Z,14.13
2018-09-11T04:25:29.301Z,10.70
2018-09-11T04:27:33.351Z,10.63
2018-09-11T04:29:37.274Z,9.37
2018-09-11T04:31:41.717Z,9.53
2018-09-11T04:33:45.969Z,9.33
2018-09-11T04:35:50.011Z,9.20
2018-09-11T04:37:58.147Z,11.03
2018-09-11T04:40:02.204Z,9.43
2018-09-11T04:42:06.153Z,12.23
2018-09-11T04:44:10.111Z,8.77
2018-09-11T04:46:14.533Z,9.87
2018-09-11T04:48:18.534Z,10.47
2018-09-11T04:50:22.933Z,9.43
2018-09-11T04:52:27.512Z,10.53
2018-09-11T04:54:31.470Z,11.07
2018-09-11T04:56:37.936Z,12.60
2018-09-11T04:58:42.031Z,11.57
2018-09-11T05:00:47.252Z,9.53
2018-09-11T05:02:51.525Z,12.13
2018-09-11T05:04:55.512Z,13.47
2018-09-11T05:06:59.645Z,10.90
2018-09-11T05:09:04.663Z,12.63
2018-09-11T05:11:10.341Z,16.80
2018-09-11T05:13:14.383Z,12.73
2018-09-11T05:15:21.017Z,10.60
2018-09-11T05:17:25.027Z,13.30
2018-09-11T05:19:29.004Z,16.33
2018-09-11T05:21:33.267Z,14.60
2018-09-11T05:23:43.024Z,16.17
2018-09-11T05:25:47.516Z,12.03
2018-09-11T05:27:53.300Z,17.10
2018-09-11T05:29:57.406Z,15.03
2018-09-11T05:32:07.106Z,11.80
2018-09-11T05:34:15.600Z,14.00
2018-09-11T05:36:19.664Z,14.33
2018-09-11T05:38:23.621Z,14.90
2018-09-11T05:40:28.119Z,16.67
2018-09-11T05:42:32.087Z,13.63
2018-09-11T05:44:40.663Z,14.40
2018-09-11T05:46:45.537Z,15.00
2018-09-11T05:48:50.934Z,14.00
2018-09-11T05:50:54.930Z,17.37
2018-09-11T05:53:01.251Z,17.40
2018-09-11T05:55:06.417Z,20.17
2018-09-11T05:57:12.489Z,15.03
2018-09-11T05:59:17.820Z,14.40
2018-09-11T06:01:25.487Z,11.67
2018-09-11T06:03:30.232Z,16.27
2018-09-11T06:05:35.336Z,13.67
2018-09-11T06:07:39.293Z,13.37
2018-09-11T06:09:43.394Z,14.30
2018-09-11T06:11:47.823Z,16.30
2018-09-11T06:13:54.361Z,16.00
2018-09-11T06:15:58.701Z,16.70
2018-09-11T06:18:03.759Z,17.13
2018-09-11T06:20:08.231Z,13.23
2018-09-11T06:22:12.200Z,11.13
2018-09-11T06:24:17.249Z,14.53
2018-09-11T06:26:22.622Z,19.93
2018-09-11T06:28:30.514Z,11.87
2018-09-11T06:30:34.528Z,12.37
2018-09-11T06:32:39.770Z,11.37
2018-09-11T06:34:47.581Z,9.17
2018-09-11T06:36:51.828Z,12.87
2018-09-11T06:38:55.788Z,15.33
2018-09-11T06:40:59.892Z,17.47
2018-09-11T06:43:10.975Z,13.80
2018-09-11T06:45:16.484Z,16.60
2018-09-11T06:47:21.256Z,11.63
2018-09-11T06:49:25.523Z,11.73
2018-09-11T06:51:31.874Z,11.63
2018-09-11T06:53:40.411Z,12.47
2018-09-11T06:55:52.409Z,12.57
2018-09-11T06:57:58.299Z,15.47
2018-09-11T07:00:02.325Z,11.60
2018-09-11T07:02:07.379Z,16.40
2018-09-11T07:04:11.340Z,15.83
2018-09-11T07:06:16.235Z,10.67
2018-09-11T07:08:24.810Z,11.77
2018-09-11T07:10:29.189Z,14.13
2018-09-11T07:12:33.690Z,13.87
2018-09-11T07:14:38.028Z,17.70
2018-09-11T07:16:42.934Z,14.10
2018-09-11T07:18:47.628Z,15.60
2018-09-11T07:20:54.991Z,13.23
2018-09-11T07:22:59.628Z,22.07
2018-09-11T07:25:05.496Z,13.90
2018-09-11T07:27:09.795Z,9.17
2018-09-11T07:29:13.908Z,13.30
2018-09-11T07:31:17.969Z,10.10
2018-09-11T07:33:23.360Z,7.97
2018-09-11T07:35:27.463Z,12.37
2018-09-11T07:37:33.371Z,11.23
2018-09-11T07:39:37.733Z,9.40
2018-09-11T07:41:45.599Z,10.20
2018-09-11T07:43:49.613Z,9.80
2018-09-11T07:45:54.511Z,6.23
2018-09-11T07:47:59.178Z,7.27
2018-09-11T07:50:03.264Z,4.70
2018-09-11T07:52:08.911Z,5.23
2018-09-11T07:54:13.924Z,6.97
2018-09-11T07:56:19.282Z,4.53
2018-09-11T07:58:24.592Z,5.33
2018-09-11T08:00:28.836Z,5.33
2018-09-11T08:02:32.823Z,3.73
2018-09-11T08:04:42.576Z,6.43
2018-09-11T08:06:48.277Z,4.50
2018-09-11T08:08:52.332Z,4.37
2018-09-11T08:10:56.383Z,3.97
2018-09-11T08:13:02.055Z,4.10
2018-09-11T08:15:07.206Z,4.90
2018-09-11T08:17:11.560Z,7.50
2018-09-11T08:19:17.409Z,5.33
2018-09-11T08:21:23.782Z,3.90
2018-09-11T08:23:28.272Z,5.33
2018-09-11T08:25:33.863Z,7.63
2018-09-11T08:27:39.032Z,5.60
2018-09-11T08:29:44.415Z,6.33
2018-09-11T08:31:49.673Z,3.87
2018-09-11T08:33:54.766Z,6.73
2018-09-11T08:36:01.139Z,3.27
2018-09-11T08:38:07.242Z,5.90
2018-09-11T08:40:18.135Z,5.60
2018-09-11T08:42:22.455Z,4.73
2018-09-11T08:44:28.311Z,4.23
2018-09-11T08:46:32.419Z,4.03
2018-09-11T08:48:37.746Z,4.77
2018-09-11T08:50:42.063Z,6.73
2018-09-11T08:52:47.091Z,3.17
2018-09-11T08:54:51.368Z,9.53
2018-09-11T08:56:55.759Z,3.27
2018-09-11T08:58:59.678Z,7.53
2018-09-11T09:01:03.704Z,6.67
2018-09-11T09:03:07.771Z,8.27
2018-09-11T09:05:11.781Z,5.07
2018-09-11T09:07:16.025Z,6.07
2018-09-11T09:09:20.019Z,4.90
2018-09-11T09:11:24.043Z,8.13
2018-09-11T09:13:33.549Z,3.97
2018-09-11T09:15:39.296Z,5.10
2018-09-11T09:17:44.036Z,5.13
2018-09-11T09:19:48.355Z,4.83
2018-09-11T09:21:52.351Z,4.47
2018-09-11T09:23:58.528Z,5.63
2018-09-11T09:26:02.819Z,4.30
2018-09-11T09:28:17.618Z,8.07
2018-09-11T09:30:22.106Z,6.43
2018-09-11T09:32:27.040Z,5.27
2018-09-11T09:34:32.270Z,3.87
2018-09-11T09:36:37.535Z,3.33
2018-09-11T09:38:48.611Z,4.63
2018-09-11T09:40:57.069Z,2.83
2018-09-11T09:43:22.681Z,5.63
2018-09-11T09:45:28.312Z,4.73
2018-09-11T09:47:33.301Z,3.55
2018-09-11T09:49:38.762Z,3.47
2018-09-11T09:51:46.508Z,5.80
2018-09-11T09:53:52.531Z,3.53
2018-09-11T09:56:03.962Z,5.87
2018-09-11T09:58:15.298Z,4.20
2018-09-11T10:00:41.872Z,4.40
2018-09-11T10:02:56.815Z,9.90
2018-09-11T10:05:04.877Z,4.10
2018-09-11T10:07:09.647Z,4.70
2018-09-11T10:09:17.099Z,5.73
2018-09-11T10:11:28.476Z,3.63
2018-09-11T10:13:35.293Z,3.30
2018-09-11T10:15:41.726Z,3.93
2018-09-11T10:17:49.841Z,6.20
2018-09-11T10:19:55.658Z,3.57
2018-09-11T10:22:03.433Z,4.12
2018-09-11T10:24:22.315Z,3.87
2018-09-11T10:26:33.211Z,4.83
2018-09-11T10:28:43.994Z,2.47
2018-09-11T10:30:50.817Z,3.60
2018-09-11T10:32:57.335Z,3.87
2018-09-11T10:35:09.308Z,7.80
2018-09-11T10:37:14.877Z,4.40
2018-09-11T10:41:49.287Z,10.97
2018-09-11T10:43:58.293Z,3.17
2018-09-11T10:46:05.774Z,5.17
2018-09-11T10:48:12.968Z,2.47
2018-09-11T10:50:27.270Z,4.58
2018-09-11T10:52:33.283Z,3.83
2018-09-11T10:54:38.601Z,5.33
2018-09-11T10:56:44.649Z,6.67
2018-09-11T10:58:48.860Z,5.57
2018-09-11T11:00:58.003Z,4.37
2018-09-11T11:03:11.790Z,3.27
2018-09-11T11:05:17.260Z,3.93
2018-09-11T11:07:27.510Z,6.07
2018-09-11T11:09:33.502Z,4.60
2018-09-11T11:11:38.979Z,3.87
2018-09-11T11:13:43.646Z,3.75
2018-09-11T11:16:01.803Z,4.75
2018-09-11T11:18:17.015Z,5.07
2018-09-11T11:20:28.917Z,3.15
2018-09-11T11:22:33.877Z,2.20
2018-09-11T11:24:42.542Z,2.77
2018-09-11T11:26:47.410Z,3.25
2018-09-11T11:28:56.646Z,4.25
2018-09-11T11:31:06.993Z,3.37
2018-09-11T11:33:13.780Z,3.27
2018-09-11T11:35:25.033Z,2.50
2018-09-11T11:37:41.334Z,4.35
2018-09-11T11:39:45.599Z,4.22
2018-09-11T11:41:53.770Z,5.55
2018-09-11T11:43:59.466Z,3.70
2018-09-11T11:46:14.000Z,5.87
2018-09-11T11:48:34.422Z,4.90
2018-09-11T11:50:51.406Z,4.10
2018-09-11T11:52:57.074Z,7.08
2018-09-11T11:55:10.582Z,3.80
2018-09-11T11:57:22.342Z,3.93
2018-09-11T11:59:35.341Z,5.80
2018-09-11T12:01:44.846Z,4.40
2018-09-11T12:03:54.186Z,3.97
2018-09-11T12:06:04.022Z,4.35
2018-09-11T12:08:11.671Z,5.17
2018-09-11T12:10:27.061Z,2.92
2018-09-11T12:12:37.971Z,2.72
2018-09-11T12:14:54.537Z,3.45
2018-09-11T12:17:05.691Z,3.15
2018-09-11T12:21:56.719Z,2.95
2018-09-11T12:26:22.752Z,2.87
2018-09-11T12:28:27.467Z,3.80
2018-09-11T12:30:33.547Z,3.35
2018-09-11T12:32:37.575Z,5.12
2018-09-11T12:34:41.955Z,3.98
2018-09-11T12:36:46.993Z,2.90
2018-09-11T12:38:53.458Z,4.27
2018-09-11T12:41:01.490Z,4.25
2018-09-11T12:43:06.722Z,5.62
2018-09-11T12:45:17.130Z,3.37
2018-09-11T12:47:23.664Z,2.75
2018-09-11T12:49:27.966Z,3.37
2018-09-11T12:51:32.026Z,3.12
2018-09-11T12:53:36.284Z,2.58
2018-09-11T12:55:41.773Z,3.50
2018-09-11T12:57:45.719Z,5.03
2018-09-11T12:59:51.617Z,3.98
2018-09-11T13:01:56.433Z,4.72
2018-09-11T13:04:01.211Z,11.35
2018-09-11T13:06:08.241Z,5.28
2018-09-11T13:08:14.404Z,3.45
2018-09-11T13:10:20.584Z,3.15
2018-09-11T13:12:26.454Z,3.90
2018-09-11T13:14:33.265Z,3.45
2018-09-11T13:16:37.276Z,4.05
2018-09-11T13:18:41.674Z,2.67
2018-09-11T13:20:47.633Z,3.20
2018-09-11T13:22:52.715Z,5.67
2018-09-11T13:25:00.066Z,3.58
2018-09-11T13:27:04.676Z,3.30
2018-09-11T13:29:13.114Z,2.75
2018-09-11T13:31:17.790Z,5.37
2018-09-11T13:33:23.076Z,3.80
2018-09-11T13:35:27.415Z,6.62
2018-09-11T13:37:32.678Z,3.98
2018-09-11T13:39:36.748Z,3.92
2018-09-11T13:41:40.745Z,3.12
2018-09-11T13:43:45.199Z,8.20
2018-09-11T13:45:50.862Z,5.72
2018-09-11T13:47:55.778Z,5.00
2018-09-11T13:50:02.035Z,3.67
2018-09-11T13:52:06.541Z,3.30
2018-09-11T13:54:10.969Z,3.30
2018-09-11T13:56:15.078Z,3.70
2018-09-11T13:58:26.048Z,6.33
2018-09-11T14:03:03.902Z,4.45
2018-09-11T14:14:13.214Z,5.17
2018-09-11T14:21:55.389Z,2.87
2018-09-11T14:24:10.102Z,4.03
2018-09-11T14:30:01.796Z,7.33
2018-09-11T14:32:31.579Z,3.12
2018-09-11T14:34:49.749Z,5.40
2018-09-11T14:37:13.714Z,4.22
2018-09-11T14:40:20.531Z,3.75
2018-09-11T14:43:48.955Z,3.52
2018-09-11T14:46:28.055Z,5.20
2018-09-11T14:49:05.377Z,3.50
2018-09-11T14:58:03.395Z,6.55
2018-09-11T15:03:42.776Z,3.30
2018-09-11T15:11:52.268Z,4.90
2018-09-11T15:17:20.296Z,3.98
2018-09-11T15:20:13.466Z,2.92
2018-09-11T15:22:32.483Z,3.22
2018-09-11T15:24:57.745Z,5.58
2018-09-11T15:37:38.588Z,3.35
2018-09-11T15:43:04.524Z,3.30
2018-09-11T15:45:50.978Z,3.25
2018-09-11T15:48:20.331Z,4.47
2018-09-11T15:50:57.200Z,5.40
2018-09-11T15:58:53.144Z,4.95
2018-09-11T16:01:41.060Z,4.12
2018-09-11T16:04:31.398Z,5.10
2018-09-11T16:10:34.115Z,3.17
2018-09-11T16:13:04.138Z,2.67
2018-09-11T16:22:16.535Z,4.17
2018-09-11T16:25:30.229Z,4.20
2018-09-11T16:33:11.608Z,6.00
2018-09-11T16:35:31.298Z,4.45
2018-09-11T16:37:58.796Z,6.53
2018-09-11T16:40:50.761Z,3.60
2018-09-11T16:43:29.364Z,3.90
2018-09-11T16:51:42.359Z,7.03
2018-09-11T16:54:14.465Z,4.83
2018-09-11T16:56:52.959Z,3.58
2018-09-11T17:05:06.642Z,5.15
2018-09-11T17:26:48.889Z,6.13
2018-09-11T17:30:03.484Z,3.53
2018-09-11T17:41:16.664Z,6.17
2018-09-11T17:50:46.390Z,7.73
2018-09-11T18:05:50.506Z,4.83
2018-09-11T18:08:38.346Z,8.10
2018-09-11T18:19:41.992Z,9.53
2018-09-11T18:22:31.026Z,4.63
2018-09-11T18:25:12.728Z,5.30
2018-09-11T18:34:24.655Z,7.37
2018-09-11T18:37:30.692Z,11.27
2018-09-11T18:43:09.232Z,8.97
2018-09-11T18:50:23.353Z,6.43
2018-09-11T18:53:12.911Z,8.70
2018-09-11T18:58:56.729Z,6.60
2018-09-11T19:01:17.681Z,4.30
2018-09-11T19:06:43.554Z,6.07
2018-09-11T19:09:57.179Z,7.80
2018-09-11T19:18:19.460Z,5.50
2018-09-11T19:23:10.622Z,6.23
2018-09-11T19:31:10.277Z,8.83
2018-09-11T19:33:44.480Z,7.33
2018-09-11T19:36:22.124Z,6.27
2018-09-11T19:51:38.622Z,7.07
2018-09-11T19:54:23.934Z,6.33
2018-09-11T19:56:50.161Z,7.10
2018-09-11T20:02:28.392Z,5.77
2018-09-11T20:07:46.545Z,4.97
2018-09-11T20:10:00.641Z,9.27
2018-09-11T20:12:31.669Z,7.30
2018-09-11T20:15:07.680Z,8.57
2018-09-11T20:17:40.414Z,12.67
2018-09-11T20:19:51.561Z,7.37
2018-09-11T20:22:52.498Z,7.03
2018-09-11T20:28:29.723Z,11.33
2018-09-11T20:31:11.030Z,8.13
2018-09-11T20:33:26.117Z,8.17
2018-09-11T20:36:09.998Z,8.20
2018-09-11T20:38:27.766Z,9.47
2018-09-11T20:41:05.218Z,13.20
2018-09-11T20:43:25.577Z,8.90
2018-09-11T20:45:38.560Z,9.10
2018-09-11T20:48:01.410Z,8.50
2018-09-11T20:52:56.992Z,8.10
2018-09-11T20:58:01.843Z,8.13
2018-09-11T21:00:24.027Z,7.33
2018-09-11T21:03:23.352Z,10.83
2018-09-11T21:06:06.559Z,8.57
2018-09-11T21:10:18.263Z,8.43
2018-09-11T21:12:40.911Z,5.90
2018-09-11T21:15:16.136Z,6.40
2018-09-11T21:17:40.160Z,6.80
2018-09-11T21:24:56.193Z,7.97
2018-09-11T21:36:56.155Z,8.47
2018-09-11T21:50:31.846Z,9.33
2018-09-11T22:00:58.583Z,9.43
2018-09-11T22:03:56.695Z,7.77
2018-09-11T22:06:20.122Z,6.10
2018-09-11T22:11:47.168Z,7.47
2018-09-11T22:14:44.695Z,6.77
2018-09-11T22:17:03.731Z,6.53
2018-09-11T22:25:01.652Z,7.73
2018-09-11T22:27:18.591Z,9.53
2018-09-11T22:29:39.014Z,8.87
2018-09-11T22:32:21.581Z,7.30
2018-09-11T22:34:41.412Z,12.20
2018-09-11T22:37:28.470Z,11.60
2018-09-11T22:39:44.503Z,8.67
2018-09-11T22:44:50.764Z,9.70
2018-09-11T22:47:12.112Z,11.17
2018-09-11T22:54:33.547Z,9.07
2018-09-11T23:02:47.430Z,12.27
2018-09-11T23:05:03.511Z,10.07
2018-09-11T23:10:15.977Z,8.97
2018-09-11T23:18:25.499Z,7.10
2018-09-11T23:21:06.374Z,8.17
2018-09-11T23:28:35.670Z,7.70
2018-09-11T23:31:13.635Z,12.13
2018-09-11T23:33:34.094Z,6.37
2018-09-11T23:39:03.214Z,9.37
2018-09-11T23:43:48.100Z,8.83
2018-09-11T23:45:54.721Z,15.47
2018-09-11T23:56:33.341Z,16.23
2018-09-11T23:59:06.692Z,8.20
